Aviation Digital Data Service (ADDS)

Output produced by METARs form (0602 UTC 25 June 2018)
found at http://www.aviationweather.gov/adds/metars/
 
METAR text: KSLO 250555Z AUTO 00000KT 10SM BKN065 21/20 A2996 RMK AO2 60134 T02120202 10264 20210 402900179
Conditions at: KSLO (SALEM/LECKRONE , IL, US) observed 0555 UTC 25 June 2018
Temperature: 21.2°C (70°F)
Dewpoint: 20.2°C (68°F) [RH = 94%]
Pressure (altimeter): 29.96 inches Hg (1014.6 mb)
Winds: calm
Visibility: 10 or more miles (16+ km)
Ceiling: 6500 feet AGL
Clouds: broken clouds at 6500 feet AGL
Weather: automated observation with no human augmentation;
there may or may not be significant weather present at this time